Time;durP1;ratioP1;P1;durP2;ratioP2;P2;SDS_P1;SDS_P2;PMS_P1;PMS_P2;Temp;Humidity;BMP_temperature;BMP_pressure;BME280_temperature;BME280_humidity;BME280_pressure;Samples;Min_cycle;Max_cycle;Signal;HPM_P1;HPM_P2
2021/12/22 00:12:50;;;;;;;27.50;11.68;;;4.50;54.50;;;;;;4916650;29;20100;-89
2021/12/22 00:15:17;;;;;;;22.42;9.70;;;4.10;55.30;;;;;;4916616;29;20028;-88
2021/12/22 00:17:42;;;;;;;21.58;10.60;;;4.10;55.80;;;;;;4913448;29;20119;-89
2021/12/22 00:20:10;;;;;;;21.27;9.45;;;4.10;55.70;;;;;;4883029;29;20111;-90
2021/12/22 00:22:36;;;;;;;23.17;9.98;;;4.10;55.40;;;;;;4914130;29;20392;-90
2021/12/22 01:10:45;;;;;;;20.15;9.52;;;5.40;52.90;;;;;;6114257;23;20065;-90
2021/12/22 01:13:12;;;;;;;19.58;9.70;;;5.00;53.80;;;;;;4949414;28;20054;-90
2021/12/22 01:15:38;;;;;;;17.23;9.05;;;4.70;54.60;;;;;;4950495;28;20047;-90
2021/12/22 01:18:13;;;;;;;22.05;10.25;;;4.60;54.50;;;;;;4950538;28;20059;-90
2021/12/22 01:23:19;;;;;;;19.35;9.55;;;4.90;54.20;;;;;;4934423;29;20370;-88
2021/12/22 02:12:35;;;;;;;21.48;10.73;;;6.60;52.00;;;;;;5334369;23;20069;-89
2021/12/22 02:15:05;;;;;;;24.17;11.55;;;6.40;52.00;;;;;;4997039;28;20038;-88
2021/12/22 02:17:30;;;;;;;28.17;12.52;;;6.20;52.90;;;;;;4988318;28;20118;-89
2021/12/22 02:19:56;;;;;;;26.75;11.93;;;6.30;53.60;;;;;;4992688;28;20210;-89
2021/12/22 02:22:23;;;;;;;26.17;12.68;;;6.30;52.60;;;;;;4982423;28;20022;-88
2021/12/22 02:24:55;;;;;;;22.60;12.05;;;6.40;52.80;;;;;;4977444;28;20042;-87
2021/12/22 02:59:08;;;;;;;24.70;12.73;;;6.60;52.80;;;;;;4968912;28;20054;-89
2021/12/22 03:04:09;;;;;;;23.38;11.68;;;6.50;52.70;;;;;;4978504;28;20370;-89
2021/12/22 03:06:46;;;;;;;23.20;11.05;;;6.60;52.70;;;;;;4968437;28;20038;-89
2021/12/22 03:09:24;;;;;;;27.38;11.82;;;6.70;52.60;;;;;;4966263;28;20359;-89
2021/12/22 03:11:51;;;;;;;23.50;11.48;;;6.80;52.80;;;;;;4984346;28;20023;-88
2021/12/22 03:14:18;;;;;;;25.10;12.77;;;6.60;52.70;;;;;;4965055;28;20081;-89
2021/12/22 03:16:44;;;;;;;24.40;12.18;;;6.30;53.00;;;;;;4972985;28;20026;-87
2021/12/22 03:19:16;;;;;;;28.25;13.05;;;6.10;54.20;;;;;;4967308;28;20093;-88
2021/12/22 03:21:44;;;;;;;25.63;13.25;;;6.20;53.90;;;;;;4966807;28;20126;-89
2021/12/22 03:24:11;;;;;;;23.25;12.85;;;5.90;54.30;;;;;;4993054;28;20033;-87
2021/12/22 03:57:27;;;;;;;23.65;12.43;;;5.00;56.90;;;;;;5747758;23;20088;-87
2021/12/22 03:59:55;;;;;;;30.42;14.88;;;5.50;56.40;;;;;;4978359;28;20023;-89
2021/12/22 04:02:22;;;;;;;29.27;13.85;;;5.90;55.40;;;;;;4995682;28;20022;-87
2021/12/22 04:04:49;;;;;;;24.58;12.85;;;6.00;54.60;;;;;;4978940;28;20369;-87
2021/12/22 04:07:15;;;;;;;27.88;12.38;;;5.90;54.70;;;;;;4978182;28;20125;-87
2021/12/22 04:09:41;;;;;;;25.48;12.98;;;5.90;55.00;;;;;;4978004;28;20418;-86
2021/12/22 04:59:22;;;;;;;30.70;14.57;;;6.90;53.70;;;;;;5136832;23;20099;-85
2021/12/22 05:01:48;;;;;;;28.27;14.00;;;6.90;53.40;;;;;;4996676;28;20060;-87
2021/12/22 05:04:14;;;;;;;23.58;14.18;;;7.10;53.20;;;;;;4996878;28;20108;-87
2021/12/22 05:07:10;;;;;;;28.05;15.48;;;7.10;53.10;;;;;;4996606;28;20026;-86
2021/12/22 05:09:36;;;;;;;30.95;15.55;;;7.20;53.00;;;;;;4996696;28;20037;-87
2021/12/22 05:12:02;;;;;;;27.60;16.20;;;7.10;53.40;;;;;;4996574;28;20022;-87
2021/12/22 05:14:28;;;;;;;31.42;14.60;;;7.20;53.10;;;;;;4996728;28;20057;-86
2021/12/22 05:16:59;;;;;;;32.45;15.57;;;7.00;53.20;;;;;;5004881;28;20480;-87
2021/12/22 05:22:47;;;;;;;27.38;13.50;;;7.20;53.30;;;;;;5033859;28;20079;-87
2021/12/22 05:25:13;;;;;;;29.50;16.25;;;6.80;53.60;;;;;;5000706;28;20148;-86
2021/12/22 05:27:40;;;;;;;28.98;15.60;;;6.70;54.10;;;;;;5013003;28;20101;-86
2021/12/22 05:30:10;;;;;;;30.50;16.45;;;6.80;54.00;;;;;;4997914;28;20108;-86
2021/12/22 05:32:37;;;;;;;29.27;15.85;;;6.90;53.80;;;;;;4996198;28;20450;-86
2021/12/22 05:35:06;;;;;;;31.42;15.73;;;7.00;53.70;;;;;;4995977;28;20033;-85
2021/12/22 05:37:32;;;;;;;29.40;15.65;;;6.90;54.10;;;;;;4992063;28;20045;-85
2021/12/22 05:39:58;;;;;;;28.63;14.73;;;6.90;53.50;;;;;;4987475;28;20026;-85
2021/12/22 07:06:52;;;;;;;41.10;21.98;;;6.20;55.00;;;;;;4631592;28;10002103;-87
2021/12/22 07:09:18;;;;;;;42.10;23.00;;;6.20;55.00;;;;;;4959041;28;20027;-86
2021/12/22 07:11:43;;;;;;;45.15;23.63;;;6.60;54.70;;;;;;4959013;28;20084;-86
2021/12/22 07:14:09;;;;;;;47.38;23.60;;;6.70;54.00;;;;;;4959338;28;20501;-86
2021/12/22 07:16:37;;;;;;;47.53;24.60;;;6.20;54.60;;;;;;4976002;28;20027;-85
2021/12/22 07:19:03;;;;;;;47.40;24.17;;;6.20;55.30;;;;;;4958712;28;20052;-86
2021/12/22 07:21:29;;;;;;;49.47;26.27;;;6.40;55.00;;;;;;4959143;28;20027;-85
2021/12/22 07:23:55;;;;;;;58.22;27.38;;;6.20;55.30;;;;;;4958778;28;20113;-86
2021/12/22 07:26:20;;;;;;;55.80;26.10;;;6.00;55.70;;;;;;4958960;28;20121;-85
2021/12/22 08:48:02;;;;;;;39.22;21.00;;;7.80;53.10;;;;;;4954176;29;20087;-82
2021/12/22 08:50:33;;;;;;;36.30;19.77;;;7.20;54.60;;;;;;4955127;29;20244;-82
2021/12/22 08:53:02;;;;;;;31.05;19.55;;;6.80;53.80;;;;;;4937170;29;20027;-82
2021/12/22 08:55:28;;;;;;;35.78;19.60;;;6.60;55.30;;;;;;4954600;29;20027;-83
2021/12/22 08:57:53;;;;;;;38.40;21.25;;;6.50;55.10;;;;;;4937888;29;20487;-86
2021/12/22 09:00:19;;;;;;;35.40;21.23;;;6.10;55.70;;;;;;4936433;29;20382;-83
2021/12/22 09:02:45;;;;;;;33.90;19.08;;;6.60;55.90;;;;;;4952425;29;20031;-81
2021/12/22 09:05:10;;;;;;;31.55;17.92;;;6.70;54.50;;;;;;4937943;29;20027;-85
2021/12/22 09:07:36;;;;;;;38.15;21.33;;;6.90;54.60;;;;;;4938328;29;20039;-83
2021/12/22 09:10:03;;;;;;;44.97;23.38;;;7.50;54.00;;;;;;4957320;29;20023;-87
2021/12/22 09:12:29;;;;;;;33.70;18.35;;;6.90;53.40;;;;;;4956094;29;20031;-85
2021/12/22 09:14:55;;;;;;;36.95;20.45;;;6.80;54.20;;;;;;4939647;29;20078;-87
2021/12/22 09:17:21;;;;;;;37.20;20.67;;;7.10;55.20;;;;;;4959012;29;20035;-85
2021/12/22 09:19:48;;;;;;;36.17;20.55;;;7.60;53.60;;;;;;4959411;29;20027;-89
2021/12/22 09:22:14;;;;;;;37.78;20.90;;;7.00;54.40;;;;;;4957557;29;20032;-88
2021/12/22 09:24:39;;;;;;;32.33;18.85;;;7.10;54.20;;;;;;4957995;29;20521;-89
2021/12/22 09:27:05;;;;;;;31.83;18.13;;;7.60;54.40;;;;;;4941235;29;20125;-84
2021/12/22 09:29:31;;;;;;;39.10;21.75;;;8.20;53.10;;;;;;4941599;29;20031;-88
2021/12/22 09:31:57;;;;;;;41.97;23.15;;;8.70;51.60;;;;;;4959178;29;20051;-87
2021/12/22 09:34:23;;;;;;;37.67;20.92;;;8.30;51.60;;;;;;4941555;29;20068;-87
2021/12/22 09:36:48;;;;;;;32.30;19.25;;;7.90;53.20;;;;;;4959414;29;20047;-84
2021/12/22 09:39:14;;;;;;;53.55;26.98;;;8.00;53.40;;;;;;4943247;29;20047;-90
2021/12/22 09:41:40;;;;;;;48.80;27.08;;;7.10;54.70;;;;;;4957889;29;20459;-89
2021/12/22 09:44:07;;;;;;;49.85;26.33;;;6.80;55.40;;;;;;4957648;29;20034;-84
2021/12/22 09:46:37;;;;;;;37.88;21.88;;;5.80;56.60;;;;;;4957817;29;20024;-85
2021/12/22 09:49:24;;;;;;;44.47;25.10;;;5.10;58.70;;;;;;4957793;29;20027;-90
2021/12/22 09:54:53;;;;;;;38.72;22.33;;;4.90;59.30;;;;;;4946543;28;20537;-88
2021/12/22 09:57:20;;;;;;;34.78;20.63;;;5.00;59.50;;;;;;4958236;29;20028;-89
2021/12/22 09:59:47;;;;;;;39.65;22.13;;;5.10;59.00;;;;;;4959447;29;20063;-89
2021/12/22 10:02:15;;;;;;;37.58;22.13;;;5.40;58.90;;;;;;4960552;29;20031;-89
2021/12/22 10:04:41;;;;;;;35.53;21.42;;;5.70;58.80;;;;;;4962266;29;20059;-86
2021/12/22 10:07:09;;;;;;;35.42;20.38;;;6.20;57.20;;;;;;4960759;29;20039;-85
2021/12/22 10:09:43;;;;;;;33.75;19.35;;;6.70;56.40;;;;;;4960866;29;20034;-85
2021/12/22 10:12:20;;;;;;;33.40;18.90;;;7.30;55.10;;;;;;4960051;29;20027;-89
2021/12/22 10:14:55;;;;;;;35.97;20.40;;;8.10;53.40;;;;;;4959636;29;20038;-89
2021/12/22 10:17:28;;;;;;;34.00;18.42;;;8.50;52.00;;;;;;5128861;23;20126;-83
2021/12/22 10:19:57;;;;;;;29.75;17.58;;;8.80;51.60;;;;;;4922188;29;20167;-91
2021/12/22 10:22:30;;;;;;;35.17;19.25;;;9.00;51.10;;;;;;4939279;29;20371;-89
2021/12/22 10:25:11;;;;;;;33.45;18.77;;;9.10;50.90;;;;;;4921985;29;20030;-91
2021/12/22 10:27:39;;;;;;;31.98;18.20;;;9.50;50.50;;;;;;4915963;29;20083;-86
2021/12/22 10:30:41;;;;;;;29.02;17.20;;;10.20;49.90;;;;;;4938952;29;20019;-82
2021/12/22 10:33:19;;;;;;;37.40;19.02;;;10.70;48.20;;;;;;4861680;29;20026;-86
2021/12/22 10:35:51;;;;;;;30.33;17.48;;;10.70;47.90;;;;;;4861702;29;20110;-88
2021/12/22 10:38:24;;;;;;;30.92;17.83;;;10.60;47.80;;;;;;4861802;29;20155;-86
2021/12/22 10:40:55;;;;;;;28.95;16.55;;;10.50;48.10;;;;;;4861622;29;20033;-84
2021/12/22 10:43:24;;;;;;;30.73;17.33;;;11.00;47.90;;;;;;4861824;29;20029;-85
2021/12/22 10:45:55;;;;;;;33.78;18.25;;;11.80;47.30;;;;;;4846603;29;20473;-84
2021/12/22 10:51:12;;;;;;;29.90;17.83;;;13.80;44.20;;;;;;4843535;29;20037;-87
2021/12/22 10:53:46;;;;;;;59.83;28.55;;;14.30;43.70;;;;;;4827919;29;20040;-88
2021/12/22 10:56:25;;;;;;;36.40;21.15;;;15.00;43.00;;;;;;4827841;29;20033;-87
2021/12/22 10:58:59;;;;;;;25.40;15.60;;;15.10;42.40;;;;;;4843313;29;20037;-88
2021/12/22 11:01:25;;;;;;;27.50;16.10;;;14.60;41.70;;;;;;4506416;29;9999831;-87
2021/12/22 11:03:55;;;;;;;25.58;15.48;;;13.50;43.30;;;;;;4842336;29;20454;-88
2021/12/22 11:06:28;;;;;;;24.60;15.80;;;13.50;44.20;;;;;;4858566;29;20050;-89
2021/12/22 11:08:56;;;;;;;25.05;15.15;;;13.10;44.60;;;;;;4901938;29;20044;-88
2021/12/22 11:11:23;;;;;;;23.58;14.77;;;13.10;44.50;;;;;;4901614;29;20028;-89
2021/12/22 11:14:16;;;;;;;23.23;14.35;;;12.90;44.40;;;;;;4901810;29;20032;-90
2021/12/22 11:20:17;;;;;;;24.75;15.02;;;12.10;45.30;;;;;;4917238;29;20176;-87
2021/12/22 11:22:59;;;;;;;24.77;14.88;;;11.60;46.00;;;;;;4901675;29;20024;-87
2021/12/22 11:25:27;;;;;;;26.13;15.65;;;11.40;46.10;;;;;;4902155;29;20035;-87
2021/12/22 11:27:55;;;;;;;27.05;15.73;;;10.80;46.40;;;;;;4918227;29;20052;-86
2021/12/22 11:30:23;;;;;;;26.42;15.27;;;10.40;47.60;;;;;;4902137;29;20040;-93
2021/12/22 11:32:49;;;;;;;27.90;16.10;;;10.30;48.50;;;;;;4918560;29;20033;-89
2021/12/22 11:35:16;;;;;;;36.90;20.27;;;9.80;48.30;;;;;;4922382;29;20044;-86
2021/12/22 11:37:42;;;;;;;28.88;17.27;;;9.50;48.50;;;;;;4906123;29;20034;-86
2021/12/22 11:40:10;;;;;;;55.63;24.58;;;8.20;51.00;;;;;;4906210;29;20061;-85
2021/12/22 11:42:40;;;;;;;44.72;25.10;;;7.70;52.80;;;;;;4905231;29;20028;-85
2021/12/22 11:45:11;;;;;;;38.22;21.10;;;8.00;52.40;;;;;;4905176;29;20039;-85
2021/12/22 11:47:42;;;;;;;38.30;21.05;;;8.00;52.50;;;;;;4907460;29;20117;-85
2021/12/22 11:50:19;;;;;;;35.83;19.70;;;7.30;53.20;;;;;;4905055;29;20036;-85
2021/12/22 11:53:09;;;;;;;36.30;20.17;;;7.30;54.00;;;;;;4906470;29;20028;-89
2021/12/22 11:55:47;;;;;;;34.83;20.17;;;7.00;54.00;;;;;;4904653;29;20028;-85
2021/12/22 11:58:32;;;;;;;32.53;19.38;;;6.80;54.60;;;;;;4905246;29;20278;-85
2021/12/22 12:00:57;;;;;;;37.75;21.00;;;6.40;55.40;;;;;;4903345;29;20036;-86
2021/12/22 12:03:32;;;;;;;35.28;19.08;;;6.30;55.90;;;;;;4905167;29;20163;-96
2021/12/22 12:06:21;;;;;;;34.65;19.27;;;6.00;56.30;;;;;;4902304;29;20043;-87
2021/12/22 12:09:34;;;;;;;34.92;21.55;;;6.20;56.30;;;;;;4902277;29;20036;-85
2021/12/22 12:12:45;;;;;;;31.55;19.85;;;6.80;55.00;;;;;;4901329;29;20059;-85
2021/12/22 12:15:23;;;;;;;35.10;21.15;;;7.10;54.50;;;;;;4808823;29;20156;-85
2021/12/22 12:23:46;;;;;;;32.05;18.30;;;7.40;52.60;;;;;;4823919;29;20048;-87
2021/12/22 12:26:36;;;;;;;33.85;18.15;;;6.30;55.80;;;;;;4824176;29;20040;-85
2021/12/22 12:29:02;;;;;;;37.40;19.17;;;5.80;57.10;;;;;;4824523;29;20042;-85
2021/12/22 12:32:22;;;;;;;41.65;23.00;;;5.50;57.40;;;;;;4826187;29;20125;-86
2021/12/22 12:35:23;;;;;;;37.25;22.02;;;6.00;57.00;;;;;;4828306;29;20141;-85
2021/12/22 12:38:24;;;;;;;35.20;20.75;;;6.10;56.10;;;;;;4828005;29;20045;-88
2021/12/22 12:41:02;;;;;;;35.80;19.88;;;6.20;57.00;;;;;;4826785;29;20056;-86
2021/12/22 12:43:48;;;;;;;40.00;23.02;;;6.30;55.90;;;;;;4827104;29;20053;-95
2021/12/22 12:46:24;;;;;;;38.53;19.88;;;7.20;55.00;;;;;;4827787;29;20030;-86
2021/12/22 12:48:53;;;;;;;33.20;19.42;;;7.50;53.70;;;;;;4825848;29;20042;-84
2021/12/22 12:51:25;;;;;;;32.33;17.55;;;6.80;54.80;;;;;;4835352;29;20083;-92
2021/12/22 12:54:40;;;;;;;30.67;18.75;;;6.40;54.60;;;;;;4842645;29;20037;-85
2021/12/22 12:57:15;;;;;;;32.88;18.50;;;6.20;56.30;;;;;;4883113;29;20024;-85
2021/12/22 13:00:04;;;;;;;35.15;18.80;;;6.40;55.00;;;;;;4884634;29;20028;-94
2021/12/22 13:02:31;;;;;;;34.95;19.02;;;6.30;55.40;;;;;;4884444;29;20060;-84
2021/12/22 13:05:05;;;;;;;32.78;18.42;;;6.00;55.80;;;;;;4899596;29;20036;-85
2021/12/22 13:07:31;;;;;;;29.08;17.10;;;6.00;56.20;;;;;;4882496;29;20083;-90
2021/12/22 13:10:00;;;;;;;32.83;19.17;;;6.20;55.50;;;;;;4882235;29;20486;-86
2021/12/22 13:17:58;;;;;;;41.25;22.40;;;7.80;53.40;;;;;;4898724;29;20095;-85
2021/12/22 13:20:40;;;;;;;38.33;23.35;;;8.20;52.50;;;;;;4881753;29;20048;-94
2021/12/22 13:23:10;;;;;;;39.75;22.08;;;8.40;52.20;;;;;;4897394;29;20503;-85
2021/12/22 13:25:38;;;;;;;39.13;23.13;;;8.70;51.60;;;;;;4897605;29;20392;-85
2021/12/22 13:28:05;;;;;;;39.92;21.50;;;8.90;51.30;;;;;;4896997;29;20040;-85
2021/12/22 13:30:44;;;;;;;36.90;22.83;;;9.00;50.70;;;;;;4881588;29;20020;-88
2021/12/22 13:33:17;;;;;;;41.55;22.88;;;9.00;51.10;;;;;;4897362;29;20028;-84
2021/12/22 13:35:52;;;;;;;39.97;21.70;;;8.90;50.70;;;;;;4897461;29;20047;-85
2021/12/22 13:38:26;;;;;;;41.10;23.00;;;8.70;51.00;;;;;;4881582;29;20033;-85
2021/12/22 13:40:53;;;;;;;45.80;23.67;;;8.50;51.40;;;;;;4897233;29;20032;-94
2021/12/22 13:43:34;;;;;;;47.35;22.48;;;8.70;51.40;;;;;;4898330;29;20097;-84
2021/12/22 13:46:47;;;;;;;37.58;21.33;;;8.80;51.10;;;;;;4881544;29;20040;-85
2021/12/22 13:49:39;;;;;;;41.72;22.52;;;8.80;51.10;;;;;;4896761;29;20127;-86
2021/12/22 13:53:02;;;;;;;41.22;22.52;;;8.70;51.40;;;;;;4897023;29;20032;-85
2021/12/22 13:55:21;;;;;;;38.88;21.30;;;8.70;51.40;;;;;;4896787;29;20408;-84
2021/12/22 13:58:32;;;;;;;40.00;22.80;;;8.40;51.90;;;;;;4897139;29;20477;-88
2021/12/22 14:01:25;;;;;;;49.85;25.65;;;8.40;52.30;;;;;;4826052;29;20038;-86
2021/12/22 14:04:14;;;;;;;51.42;28.27;;;8.40;52.40;;;;;;4843757;29;20059;-91
2021/12/22 14:06:49;;;;;;;47.97;25.30;;;8.40;51.90;;;;;;4843777;29;20476;-87
2021/12/22 14:09:21;;;;;;;45.42;26.02;;;8.50;52.10;;;;;;4843771;29;20482;-93
2021/12/22 14:11:59;;;;;;;69.03;31.75;;;8.40;52.00;;;;;;4843825;29;20145;-86
2021/12/22 14:14:42;;;;;;;84.97;36.80;;;8.50;51.80;;;;;;4843628;29;20117;-87
2021/12/22 14:17:48;;;;;;;69.57;32.03;;;8.60;51.60;;;;;;4843368;29;20034;-85
2021/12/22 14:20:23;;;;;;;49.10;26.67;;;8.50;51.90;;;;;;4864239;29;20133;-93
2021/12/22 14:23:03;;;;;;;58.92;30.95;;;8.50;51.80;;;;;;4880504;29;20036;-93
2021/12/22 14:25:31;;;;;;;99.55;46.60;;;8.50;51.60;;;;;;4880341;29;20052;-85
2021/12/22 14:28:12;;;;;;;110.60;47.65;;;8.60;51.60;;;;;;4880292;29;20077;-85
2021/12/22 14:31:13;;;;;;;95.68;42.03;;;8.70;51.30;;;;;;4880381;29;20033;-84
2021/12/22 14:37:03;;;;;;;70.43;36.92;;;8.30;51.70;;;;;;4892854;29;20035;-84
2021/12/22 14:39:43;;;;;;;64.77;33.40;;;8.00;52.10;;;;;;4919101;29;20025;-84
2021/12/22 14:42:30;;;;;;;69.65;32.85;;;8.10;52.40;;;;;;4919185;29;20118;-84
2021/12/22 14:45:21;;;;;;;69.28;31.98;;;7.90;52.40;;;;;;4918857;29;20083;-84
2021/12/22 14:48:10;;;;;;;74.95;36.63;;;7.70;52.80;;;;;;4918555;29;20171;-84
2021/12/22 14:50:39;;;;;;;62.55;29.83;;;7.50;52.90;;;;;;4918743;29;20039;-85
2021/12/22 14:56:11;;;;;;;59.65;30.58;;;7.40;53.30;;;;;;4920039;29;20166;-85
2021/12/22 14:58:39;;;;;;;60.90;30.00;;;7.50;53.30;;;;;;4918548;29;20028;-86
2021/12/22 15:01:33;;;;;;;65.15;30.45;;;7.50;53.00;;;;;;4918715;29;20035;-85
2021/12/22 15:03:58;;;;;;;68.03;33.67;;;7.40;53.10;;;;;;4918330;29;20036;-83
2021/12/22 15:06:26;;;;;;;64.43;30.17;;;7.50;52.80;;;;;;4918148;29;20040;-88
2021/12/22 15:12:31;;;;;;;92.82;42.35;;;7.40;52.50;;;;;;4918619;29;20035;-83
2021/12/22 15:14:57;;;;;;;133.90;61.60;;;7.40;53.00;;;;;;4917976;29;20131;-90
2021/12/22 15:17:23;;;;;;;97.53;43.03;;;7.50;52.50;;;;;;4915714;29;20038;-83
2021/12/22 15:19:52;;;;;;;110.65;50.10;;;7.30;52.90;;;;;;4916062;29;20056;-82
2021/12/22 15:22:19;;;;;;;159.55;69.03;;;7.40;52.70;;;;;;4916534;29;20020;-91
2021/12/22 15:25:29;;;;;;;96.80;43.42;;;7.40;52.40;;;;;;4916873;29;20028;-84
2021/12/22 15:27:55;;;;;;;65.70;31.58;;;7.30;52.10;;;;;;4823606;29;20223;-90
2021/12/22 15:30:22;;;;;;;60.03;29.30;;;7.10;52.10;;;;;;4808622;29;20117;-92
2021/12/22 15:32:49;;;;;;;130.88;59.15;;;7.20;52.20;;;;;;4808956;29;20098;-83
2021/12/22 15:38:47;;;;;;;66.65;32.47;;;7.10;51.80;;;;;;4789298;29;20126;-88
2021/12/22 15:41:13;;;;;;;72.05;33.80;;;6.70;52.30;;;;;;4772927;30;20036;-91
2021/12/22 15:43:38;;;;;;;77.72;33.75;;;6.70;52.50;;;;;;4773088;30;20598;-83
2021/12/22 15:46:04;;;;;;;67.13;32.58;;;6.70;52.50;;;;;;4772514;30;20043;-89
2021/12/22 15:48:30;;;;;;;63.95;31.73;;;6.80;52.30;;;;;;4787783;29;20059;-92
2021/12/22 15:50:56;;;;;;;64.65;32.70;;;6.70;52.30;;;;;;4787408;29;20042;-83
2021/12/22 15:53:22;;;;;;;66.05;33.25;;;6.70;52.30;;;;;;4772630;30;20535;-83
2021/12/22 15:55:48;;;;;;;77.97;34.33;;;6.70;52.30;;;;;;4772235;29;20089;-85
2021/12/22 15:58:15;;;;;;;69.55;32.55;;;6.70;52.10;;;;;;4807153;29;20077;-82
2021/12/22 16:00:43;;;;;;;75.95;32.88;;;6.70;52.30;;;;;;4826466;29;20022;-81
2021/12/22 16:03:09;;;;;;;73.05;36.28;;;6.60;52.10;;;;;;4826654;29;20038;-90
2021/12/22 16:05:35;;;;;;;75.20;34.45;;;6.70;52.40;;;;;;4826433;29;20029;-89
2021/12/22 16:08:01;;;;;;;74.10;34.50;;;6.70;52.20;;;;;;4841576;29;20050;-88
2021/12/22 16:10:27;;;;;;;77.55;36.25;;;6.60;52.10;;;;;;4826289;29;20034;-82
2021/12/22 16:12:54;;;;;;;83.63;40.33;;;6.60;52.30;;;;;;4826390;29;20563;-81
2021/12/22 16:15:20;;;;;;;83.47;39.88;;;6.70;52.10;;;;;;4893210;29;20033;-84
2021/12/22 16:19:32;;;;;;;86.75;40.05;;;6.80;51.40;;;;;;5087845;27;1418867;-82
2021/12/22 16:21:58;;;;;;;79.13;36.67;;;6.80;51.80;;;;;;5093148;28;20055;-86
2021/12/22 16:24:24;;;;;;;76.60;36.63;;;6.90;51.50;;;;;;5093206;28;20393;-87
2021/12/22 16:26:50;;;;;;;74.95;37.65;;;6.90;51.20;;;;;;5093214;28;20036;-81
2021/12/22 16:29:16;;;;;;;81.22;39.35;;;6.90;51.10;;;;;;5093018;28;20063;-81
2021/12/22 16:31:42;;;;;;;77.72;37.28;;;6.70;51.20;;;;;;5093240;28;20106;-86
2021/12/22 16:36:54;;;;;;;75.28;34.10;;;6.60;51.50;;;;;;5110294;28;20024;-87
2021/12/22 16:39:20;;;;;;;72.45;32.78;;;6.60;51.50;;;;;;5093124;28;20046;-81
2021/12/22 16:41:46;;;;;;;64.57;34.08;;;6.40;51.50;;;;;;5092595;28;20485;-84
2021/12/22 16:44:12;;;;;;;68.85;32.40;;;6.30;52.10;;;;;;5092729;28;20558;-81
2021/12/22 16:46:38;;;;;;;64.00;29.65;;;6.30;52.20;;;;;;5092681;28;20019;-88
2021/12/22 16:49:04;;;;;;;58.78;29.38;;;6.20;51.80;;;;;;5092492;28;20028;-80
2021/12/22 16:51:31;;;;;;;60.17;29.55;;;6.30;51.50;;;;;;5092908;28;20028;-85
2021/12/22 16:53:56;;;;;;;54.72;27.85;;;6.30;51.60;;;;;;5110732;28;20050;-81
2021/12/22 16:56:22;;;;;;;55.80;27.15;;;6.30;51.50;;;;;;5092190;28;20390;-84
2021/12/22 16:58:49;;;;;;;52.65;26.92;;;6.20;52.20;;;;;;5092238;28;20032;-83
2021/12/22 17:01:15;;;;;;;50.92;25.42;;;6.00;52.70;;;;;;5092195;28;20047;-84
2021/12/22 17:03:42;;;;;;;53.40;26.20;;;6.10;52.50;;;;;;5110279;28;20409;-80
2021/12/22 17:06:08;;;;;;;58.45;27.13;;;6.20;52.20;;;;;;5092121;28;20023;-84
2021/12/22 17:08:39;;;;;;;48.03;24.80;;;6.20;51.30;;;;;;5092303;28;20050;-87
2021/12/22 17:11:05;;;;;;;58.55;27.67;;;6.10;51.30;;;;;;5091915;28;20043;-87
2021/12/22 17:13:31;;;;;;;63.63;28.55;;;5.90;51.00;;;;;;5091758;28;20024;-87
2021/12/22 17:15:57;;;;;;;55.72;28.02;;;5.90;51.40;;;;;;5092101;28;20020;-85
2021/12/22 17:18:22;;;;;;;57.47;26.30;;;5.70;51.60;;;;;;5109973;28;20067;-83
2021/12/22 17:20:48;;;;;;;51.65;25.90;;;5.70;51.70;;;;;;5109899;28;20031;-81
2021/12/22 17:23:14;;;;;;;53.47;26.05;;;5.70;51.80;;;;;;5109824;28;20023;-80
2021/12/22 17:25:42;;;;;;;62.65;27.77;;;5.70;51.90;;;;;;5109921;28;20027;-88
2021/12/22 17:28:08;;;;;;;56.55;26.92;;;5.50;51.90;;;;;;5109881;28;20079;-81
2021/12/22 17:30:34;;;;;;;56.50;26.10;;;5.50;51.90;;;;;;5079786;28;20600;-86
2021/12/22 17:33:00;;;;;;;50.28;26.10;;;5.40;52.00;;;;;;5078173;28;20379;-88
2021/12/22 17:35:29;;;;;;;45.88;24.00;;;5.40;52.10;;;;;;5077974;28;20032;-80
2021/12/22 17:37:55;;;;;;;49.35;23.48;;;5.30;52.00;;;;;;5077722;28;20046;-81
2021/12/22 17:40:21;;;;;;;49.15;24.52;;;5.00;52.30;;;;;;5078234;28;20028;-88
2021/12/22 17:42:48;;;;;;;44.47;24.80;;;4.90;52.60;;;;;;5078024;28;20360;-89
2021/12/22 17:46:47;;;;;;;46.20;22.60;;;5.10;52.10;;;;;;5084459;27;1397067;-81
2021/12/22 17:49:12;;;;;;;49.83;24.38;;;5.30;52.00;;;;;;5111127;28;20031;-81
2021/12/22 17:51:38;;;;;;;56.08;24.40;;;5.00;53.60;;;;;;5093236;28;20030;-90
2021/12/22 17:54:04;;;;;;;50.30;23.73;;;5.00;52.80;;;;;;5111116;28;20020;-81
2021/12/22 17:56:30;;;;;;;52.58;26.02;;;5.10;52.20;;;;;;5111023;28;20027;-82
2021/12/22 17:58:55;;;;;;;53.50;26.33;;;4.90;52.80;;;;;;5093344;28;20023;-82
2021/12/22 18:01:24;;;;;;;53.47;27.50;;;4.80;52.30;;;;;;5092984;28;20030;-89
2021/12/22 18:03:51;;;;;;;61.40;28.25;;;4.90;52.20;;;;;;5093015;28;20028;-81
2021/12/22 18:06:23;;;;;;;55.92;28.35;;;5.10;52.60;;;;;;5092798;28;20042;-81
2021/12/22 18:08:51;;;;;;;56.53;27.35;;;5.20;52.40;;;;;;5093054;28;20019;-82
2021/12/22 18:11:17;;;;;;;61.67;31.10;;;5.20;52.60;;;;;;5092654;28;20063;-81
2021/12/22 18:13:43;;;;;;;101.10;46.47;;;4.80;53.00;;;;;;5092539;28;20047;-90
2021/12/22 18:16:09;;;;;;;77.15;35.22;;;4.50;54.20;;;;;;5093002;28;20024;-81
2021/12/22 18:18:34;;;;;;;70.32;33.83;;;4.60;53.90;;;;;;5092525;28;20086;-83
2021/12/22 18:21:00;;;;;;;69.53;32.58;;;4.70;51.80;;;;;;5092842;28;20529;-91
2021/12/22 18:23:26;;;;;;;82.32;36.63;;;4.60;51.50;;;;;;5092789;28;20115;-91
2021/12/22 18:25:52;;;;;;;82.88;37.13;;;4.80;51.60;;;;;;5092443;28;20039;-90
2021/12/22 18:28:18;;;;;;;68.15;31.45;;;4.70;51.90;;;;;;5111132;28;20027;-91
2021/12/22 18:30:44;;;;;;;57.65;28.60;;;4.80;51.40;;;;;;5092699;28;20028;-92
2021/12/22 18:33:10;;;;;;;56.67;28.67;;;4.80;51.50;;;;;;5092407;28;20024;-90
2021/12/22 18:35:39;;;;;;;52.78;28.35;;;4.90;51.40;;;;;;5092681;28;20032;-92
2021/12/22 18:38:22;;;;;;;57.53;29.40;;;5.00;51.60;;;;;;5092454;28;20123;-92
2021/12/22 18:41:21;;;;;;;76.80;36.80;;;4.90;51.90;;;;;;5092252;28;20036;-83
2021/12/22 18:44:15;;;;;;;113.35;46.60;;;4.50;53.10;;;;;;5091907;28;20024;-83
2021/12/22 18:46:44;;;;;;;106.28;46.33;;;4.00;54.80;;;;;;5092099;28;20097;-92
2021/12/22 18:49:17;;;;;;;73.70;33.83;;;3.90;54.80;;;;;;5110475;28;20099;-84
2021/12/22 18:51:47;;;;;;;63.83;29.90;;;4.10;54.10;;;;;;5092252;28;20032;-92
2021/12/22 18:54:14;;;;;;;57.08;28.77;;;4.20;52.40;;;;;;5092255;28;20107;-88
2021/12/22 18:56:40;;;;;;;56.55;28.17;;;4.50;51.80;;;;;;5086963;28;20020;-87
2021/12/22 18:59:06;;;;;;;54.45;27.48;;;4.40;51.30;;;;;;5097109;28;20032;-84
2021/12/22 19:02:22;;;;;;;54.42;25.75;;;4.30;51.30;;;;;;5096416;28;20016;-85
2021/12/22 19:08:24;;;;;;;51.15;24.30;;;3.50;51.90;;;;;;4996666;28;20598;-94
2021/12/22 19:14:16;;;;;;;75.05;33.55;;;3.20;53.70;;;;;;4925369;29;20047;-88
2021/12/22 19:16:41;;;;;;;54.25;25.30;;;3.60;53.10;;;;;;4926295;29;20080;-95
2021/12/22 19:19:07;;;;;;;52.05;25.90;;;3.80;52.60;;;;;;4912576;29;20032;-85
2021/12/22 19:21:34;;;;;;;58.63;26.88;;;4.00;51.90;;;;;;4915167;29;20076;-86
2021/12/22 19:26:56;;;;;;;47.65;23.55;;;4.00;51.20;;;;;;5311675;23;20377;-88
2021/12/22 19:29:22;;;;;;;45.78;22.13;;;3.30;51.10;;;;;;4996317;28;20458;-88
2021/12/22 19:32:02;;;;;;;52.83;24.48;;;2.90;52.40;;;;;;4810608;28;10001120;-86
2021/12/22 19:37:46;;;;;;;62.92;29.52;;;2.70;52.60;;;;;;5354339;23;20089;-85
2021/12/22 19:44:14;;;;;;;57.42;28.05;;;3.10;52.60;;;;;;5061524;23;20063;-86
2021/12/22 19:51:02;;;;;;;55.67;25.40;;;2.80;53.50;;;;;;5530805;23;20084;-84
2021/12/22 20:09:06;;;;;;;52.45;23.83;;;2.60;52.00;;;;;;5501293;23;21122;-91
2021/12/22 20:18:31;;;;;;;50.63;23.70;;;2.10;52.40;;;;;;5012445;28;20056;-91
2021/12/22 20:35:16;;;;;;;83.93;39.58;;;2.80;54.30;;;;;;4972600;28;20083;-92
2021/12/22 20:42:47;;;;;;;76.70;35.53;;;3.20;51.50;;;;;;6103107;23;20021;-89
2021/12/22 20:48:44;;;;;;;66.03;32.13;;;2.90;51.60;;;;;;5034100;28;20029;-89
2021/12/22 20:53:37;;;;;;;59.95;28.67;;;2.90;52.10;;;;;;5980297;23;22959;-88
2021/12/22 21:07:17;;;;;;;60.95;28.63;;;3.40;51.70;;;;;;4973038;28;20047;-88
2021/12/22 21:18:47;;;;;;;55.85;28.02;;;2.70;50.60;;;;;;5421251;23;20053;-88
2021/12/22 21:25:02;;;;;;;58.80;26.95;;;2.90;51.90;;;;;;5752375;23;20501;-87
2021/12/22 21:33:55;;;;;;;62.25;28.67;;;2.70;51.40;;;;;;5402456;23;20050;-91
2021/12/22 21:36:29;;;;;;;59.45;28.40;;;2.60;52.00;;;;;;5488681;23;20719;31
2021/12/22 21:50:36;;;;;;;71.40;33.15;;;2.20;51.70;;;;;;4916411;24;20045;-88
2021/12/22 21:53:02;;;;;;;64.82;30.27;;;2.20;52.10;;;;;;4835569;29;20055;-92
2021/12/22 21:58:50;;;;;;;67.82;29.55;;;1.90;51.60;;;;;;4861460;23;20109;-90